Time;durP1;ratioP1;P1;durP2;ratioP2;P2;SDS_P1;SDS_P2;PMS_P1;PMS_P2;Temp;Humidity;BMP_temperature;BMP_pressure;BME280_temperature;BME280_humidity;BME280_pressure;Samples;Min_cycle;Max_cycle;Signal;HPM_P1;HPM_P2
2021/07/25 00:02:17;;;;;;;1.77;1.50;;;13.50;62.90;;;;;;5105701;28;20762;-68
2021/07/25 00:04:43;;;;;;;2.63;1.98;;;13.40;64.00;;;;;;5105433;28;20378;-68
2021/07/25 00:07:10;;;;;;;2.65;1.83;;;13.40;65.00;;;;;;5104738;28;20440;-69
2021/07/25 00:09:36;;;;;;;3.83;2.72;;;13.40;66.20;;;;;;5098554;28;20020;-68
2021/07/25 00:12:03;;;;;;;3.95;2.80;;;13.40;66.30;;;;;;5094561;28;20024;-69
2021/07/25 00:14:30;;;;;;;5.25;3.92;;;13.40;66.90;;;;;;5109756;28;20026;-68
2021/07/25 00:16:56;;;;;;;5.28;3.70;;;13.40;66.80;;;;;;5105942;28;20050;-70
2021/07/25 00:19:23;;;;;;;6.22;4.55;;;13.40;66.70;;;;;;5105731;28;20359;-69
2021/07/25 00:21:49;;;;;;;5.70;4.97;;;13.40;66.50;;;;;;5102229;28;20122;-69
2021/07/25 00:24:22;;;;;;;7.70;4.93;;;13.30;66.20;;;;;;5110644;28;20028;-70
2021/07/25 00:26:49;;;;;;;5.82;4.45;;;13.30;65.70;;;;;;5107989;28;20406;-68
2021/07/25 00:29:17;;;;;;;7.43;5.65;;;13.30;65.10;;;;;;5102365;27;20015;-69
2021/07/25 00:31:43;;;;;;;8.20;4.75;;;13.30;64.60;;;;;;5107524;28;20022;-69
2021/07/25 00:34:10;;;;;;;8.32;5.05;;;13.30;63.60;;;;;;5106637;28;20427;-70
2021/07/25 00:36:36;;;;;;;7.60;4.97;;;13.30;63.30;;;;;;5105545;28;20031;-70
2021/07/25 00:39:07;;;;;;;6.30;5.07;;;13.30;62.10;;;;;;5106029;28;20007;-68
2021/07/25 00:41:34;;;;;;;7.63;5.80;;;13.20;61.80;;;;;;5108025;27;20042;-69
2021/07/25 00:44:00;;;;;;;10.35;5.85;;;13.20;61.60;;;;;;5107234;28;20016;-68
2021/07/25 00:46:27;;;;;;;11.10;5.72;;;13.20;61.10;;;;;;5104707;28;20185;-68
2021/07/25 00:48:55;;;;;;;9.05;5.53;;;13.20;60.80;;;;;;5100721;28;20024;-67
2021/07/25 00:51:23;;;;;;;9.82;5.65;;;13.10;60.20;;;;;;5105825;28;20436;-70
2021/07/25 00:53:50;;;;;;;8.55;5.05;;;13.10;60.00;;;;;;5103432;28;20059;-69
2021/07/25 00:56:17;;;;;;;10.25;5.18;;;13.10;59.60;;;;;;5105165;28;20445;-68
2021/07/25 00:58:44;;;;;;;6.65;4.60;;;13.10;58.90;;;;;;5105896;28;20093;-69
2021/07/25 01:01:12;;;;;;;6.07;4.65;;;13.10;58.30;;;;;;5099384;28;20012;-68
2021/07/25 01:04:06;;;;;;;5.90;4.38;;;13.10;58.00;;;;;;5101553;28;20020;-68
2021/07/25 01:07:13;;;;;;;4.97;4.43;;;13.10;57.50;;;;;;5103182;28;20016;-72
2021/07/25 01:09:39;;;;;;;;;;;13.10;57.10;;;;;;5102172;28;20063;-70
2021/07/25 01:12:08;;;;;;;7.25;4.25;;;13.00;56.70;;;;;;5107673;28;19957;-70
2021/07/25 01:14:38;;;;;;;6.40;4.80;;;13.10;56.40;;;;;;5107993;28;20024;-70
2021/07/25 01:17:23;;;;;;;5.40;4.60;;;13.00;56.30;;;;;;5104718;28;20098;-68
2021/07/25 01:19:50;;;;;;;4.13;3.55;;;13.00;56.00;;;;;;5104993;28;20028;-71
2021/07/25 01:22:17;;;;;;;7.55;4.47;;;13.00;55.40;;;;;;5106611;28;20047;-71
2021/07/25 01:24:44;;;;;;;5.60;4.00;;;13.00;55.30;;;;;;5101112;28;20445;-69
2021/07/25 01:27:52;;;;;;;6.50;4.20;;;13.00;55.20;;;;;;5101549;28;20028;-68
2021/07/25 01:30:23;;;;;;;5.82;4.28;;;13.00;54.90;;;;;;5096302;28;20027;-70
2021/07/25 01:32:53;;;;;;;7.68;4.43;;;12.90;54.90;;;;;;5105573;28;20026;-71
2021/07/25 01:35:21;;;;;;;6.50;4.38;;;12.90;55.00;;;;;;5101497;28;20028;-70
2021/07/25 01:37:47;;;;;;;4.47;4.00;;;12.90;55.00;;;;;;5105358;28;20020;-71
2021/07/25 01:40:24;;;;;;;4.57;4.18;;;12.90;54.60;;;;;;5101061;28;20031;-69
2021/07/25 01:42:51;;;;;;;5.68;3.75;;;12.90;54.50;;;;;;5104147;28;20024;-70
2021/07/25 01:45:19;;;;;;;5.55;3.70;;;12.90;54.50;;;;;;5104517;28;20024;-68
2021/07/25 01:47:45;;;;;;;4.53;4.13;;;12.90;54.50;;;;;;5102331;28;20410;-71
2021/07/25 01:50:13;;;;;;;6.15;4.68;;;12.90;54.60;;;;;;5098497;28;20027;-68
2021/07/25 01:52:41;;;;;;;5.00;3.80;;;12.90;54.90;;;;;;5099781;28;20047;-68
2021/07/25 01:55:08;;;;;;;4.43;3.58;;;12.90;54.90;;;;;;5100449;28;20516;-71
2021/07/25 01:57:34;;;;;;;5.45;3.75;;;12.90;54.80;;;;;;5105601;28;20019;-69
2021/07/25 02:00:01;;;;;;;6.50;3.80;;;12.90;54.90;;;;;;5105828;28;20012;-68
2021/07/25 02:02:27;;;;;;;5.20;3.67;;;12.90;55.10;;;;;;5102666;28;20043;-69
2021/07/25 02:04:54;;;;;;;5.22;4.32;;;12.90;55.10;;;;;;5106867;28;20024;-70
2021/07/25 02:07:20;;;;;;;4.97;3.80;;;12.90;55.10;;;;;;5098425;28;20351;-69
2021/07/25 02:09:47;;;;;;;8.07;4.32;;;12.90;54.80;;;;;;5102678;28;20012;-70
2021/07/25 02:12:13;;;;;;;6.22;4.18;;;12.90;54.60;;;;;;5099963;28;20859;-68
2021/07/25 02:14:40;;;;;;;6.47;4.35;;;12.80;54.70;;;;;;5103500;28;20019;-67
2021/07/25 02:17:08;;;;;;;6.20;4.05;;;12.80;54.50;;;;;;5096417;28;20020;-69
2021/07/25 02:19:36;;;;;;;8.88;4.45;;;12.80;54.20;;;;;;5104007;28;20024;-69
2021/07/25 02:22:03;;;;;;;9.82;4.90;;;12.80;53.90;;;;;;5104300;28;20040;-71
2021/07/25 02:24:30;;;;;;;5.53;4.93;;;12.80;53.80;;;;;;5101748;28;20019;-67
2021/07/25 02:26:56;;;;;;;10.63;5.18;;;12.80;53.50;;;;;;5103466;28;20562;-67
2021/07/25 02:29:23;;;;;;;6.32;4.43;;;12.80;53.50;;;;;;5101110;28;20383;-68
2021/07/25 02:31:49;;;;;;;6.60;4.68;;;12.80;53.70;;;;;;5094719;28;20015;-71
2021/07/25 02:34:16;;;;;;;4.55;3.88;;;12.80;53.60;;;;;;5103699;28;20024;-69
2021/07/25 02:36:43;;;;;;;7.13;4.68;;;12.80;53.60;;;;;;5104231;28;20027;-68
2021/07/25 02:39:09;;;;;;;6.68;4.35;;;12.80;53.40;;;;;;5095155;28;20118;-69
2021/07/25 02:41:36;;;;;;;6.13;3.50;;;12.80;53.10;;;;;;5104908;28;20035;-72
2021/07/25 02:44:02;;;;;;;4.47;3.70;;;12.80;53.10;;;;;;5101226;28;20090;-69
2021/07/25 02:46:29;;;;;;;6.43;4.40;;;12.80;52.60;;;;;;5104470;28;20506;-68
2021/07/25 02:48:55;;;;;;;6.70;3.90;;;12.80;52.80;;;;;;5103230;28;20020;-69
2021/07/25 02:51:22;;;;;;;6.78;3.80;;;12.80;52.70;;;;;;5099822;28;20868;-69
2021/07/25 02:53:48;;;;;;;7.25;4.53;;;12.80;52.40;;;;;;5104881;28;20054;-67
2021/07/25 02:56:15;;;;;;;5.07;3.97;;;12.80;52.20;;;;;;5099803;28;20020;-69
2021/07/25 02:58:41;;;;;;;6.25;4.00;;;12.70;52.20;;;;;;5102571;28;20020;-68
2021/07/25 03:01:15;;;;;;;22.83;16.90;;;12.70;52.00;;;;;;5102301;28;20027;-69
2021/07/25 03:03:41;;;;;;;27.63;19.08;;;12.70;52.20;;;;;;5097220;28;20024;-70
2021/07/25 03:06:08;;;;;;;10.10;7.28;;;12.70;52.40;;;;;;5099510;28;20097;-68
2021/07/25 03:08:35;;;;;;;6.20;4.28;;;12.70;52.10;;;;;;5098442;28;20029;-69
2021/07/25 03:11:05;;;;;;;4.47;3.90;;;12.70;51.70;;;;;;5102429;28;20016;-69
2021/07/25 03:13:32;;;;;;;4.25;3.40;;;12.80;51.70;;;;;;5100709;28;20112;-68
2021/07/25 03:16:06;;;;;;;5.57;3.65;;;12.70;51.50;;;;;;5107730;28;20022;-69
2021/07/25 03:18:33;;;;;;;5.90;3.55;;;12.70;51.30;;;;;;5103051;28;20668;-68
2021/07/25 03:21:00;;;;;;;5.05;2.83;;;12.70;51.10;;;;;;5099400;28;20031;-70
2021/07/25 03:23:27;;;;;;;11.48;3.25;;;12.70;51.10;;;;;;5098997;28;20062;-71
2021/07/25 03:25:54;;;;;;;4.82;3.38;;;12.70;50.90;;;;;;5104198;28;20024;-68
2021/07/25 03:28:21;;;;;;;4.55;3.45;;;12.70;50.90;;;;;;5105852;28;20020;-68
2021/07/25 03:30:47;;;;;;;4.82;3.00;;;12.70;51.00;;;;;;5100168;28;20495;-71
2021/07/25 03:33:15;;;;;;;5.55;2.80;;;12.70;50.80;;;;;;5109491;28;20449;-67
2021/07/25 03:35:41;;;;;;;5.88;3.60;;;12.70;50.80;;;;;;5098961;28;20015;-69
2021/07/25 03:38:08;;;;;;;2.63;2.40;;;12.70;50.70;;;;;;5105187;28;20048;-69
2021/07/25 03:40:35;;;;;;;3.03;2.33;;;12.70;50.60;;;;;;5103557;28;20026;-70
2021/07/25 03:43:02;;;;;;;4.05;3.47;;;12.70;50.60;;;;;;5106499;28;20032;-70
2021/07/25 03:45:28;;;;;;;4.05;2.80;;;12.70;50.40;;;;;;5099422;28;20538;-67
2021/07/25 03:47:55;;;;;;;5.82;2.58;;;12.70;50.30;;;;;;5108386;28;20395;-69
2021/07/25 03:50:23;;;;;;;3.78;2.63;;;12.70;50.30;;;;;;5106419;28;20028;-68
2021/07/25 03:52:50;;;;;;;3.92;2.72;;;12.70;50.20;;;;;;5105280;28;20475;-68
2021/07/25 03:55:16;;;;;;;4.72;2.63;;;12.70;50.30;;;;;;5100455;28;20026;-68
2021/07/25 03:57:44;;;;;;;3.40;2.80;;;12.70;50.30;;;;;;5103993;28;20014;-70
2021/07/25 04:00:11;;;;;;;7.38;3.17;;;12.70;50.30;;;;;;5106814;28;20023;-69
2021/07/25 04:02:38;;;;;;;5.07;3.13;;;12.70;50.20;;;;;;5101481;28;20501;-69
2021/07/25 04:05:04;;;;;;;14.88;12.23;;;12.70;50.20;;;;;;5106597;28;20020;-70
2021/07/25 04:07:31;;;;;;;15.55;12.82;;;12.70;50.20;;;;;;5105777;28;20015;-68
2021/07/25 04:09:58;;;;;;;10.23;6.05;;;12.70;50.10;;;;;;5107625;28;20019;-68
2021/07/25 04:12:24;;;;;;;5.32;3.47;;;12.70;50.00;;;;;;5103062;28;20019;-68
2021/07/25 04:14:51;;;;;;;4.63;4.00;;;12.70;49.80;;;;;;5107511;28;20026;-70
2021/07/25 04:17:17;;;;;;;5.20;2.60;;;12.70;49.90;;;;;;5106739;28;20382;-68
2021/07/25 04:19:44;;;;;;;2.80;2.25;;;12.70;49.80;;;;;;5102783;28;20020;-68
2021/07/25 04:22:10;;;;;;;4.05;2.40;;;12.70;49.80;;;;;;5106009;28;20486;-69
2021/07/25 04:24:36;;;;;;;5.38;2.92;;;12.70;49.80;;;;;;5105384;28;20078;-68
2021/07/25 04:27:03;;;;;;;7.45;2.67;;;12.60;49.60;;;;;;5107654;28;20039;-70
2021/07/25 04:29:30;;;;;;;5.00;2.80;;;12.60;49.40;;;;;;5105873;28;20110;-71
2021/07/25 04:31:57;;;;;;;5.50;2.80;;;12.70;49.50;;;;;;5103544;28;20081;-68
2021/07/25 04:34:25;;;;;;;3.38;2.05;;;12.70;49.60;;;;;;5103852;28;20103;-70
2021/07/25 04:36:52;;;;;;;4.28;2.78;;;12.70;49.40;;;;;;5106217;28;20568;-69
2021/07/25 04:39:18;;;;;;;3.40;2.22;;;12.70;49.40;;;;;;5109402;28;20032;-70
2021/07/25 04:41:56;;;;;;;2.30;1.90;;;12.70;49.20;;;;;;5106852;28;20059;-67
2021/07/25 04:44:42;;;;;;;4.43;2.22;;;12.70;49.10;;;;;;5103200;28;20027;-69
2021/07/25 04:47:12;;;;;;;;;;;12.70;48.80;;;;;;5105049;28;20027;-70
2021/07/25 04:49:54;;;;;;;4.90;2.20;;;12.60;48.50;;;;;;5104337;28;20501;-70
2021/07/25 04:52:23;;;;;;;2.58;2.05;;;12.70;48.50;;;;;;5101876;28;20031;-70
2021/07/25 04:54:50;;;;;;;2.03;1.70;;;12.60;48.50;;;;;;5095841;28;20019;-70
2021/07/25 04:57:19;;;;;;;3.42;1.92;;;12.60;48.50;;;;;;5102677;28;20016;-69
2021/07/25 04:59:51;;;;;;;4.20;1.98;;;12.60;48.30;;;;;;5104460;28;20023;-70
2021/07/25 05:02:20;;;;;;;2.58;1.73;;;12.60;48.20;;;;;;5103890;28;20028;-69
2021/07/25 05:04:49;;;;;;;2.60;2.40;;;12.60;48.30;;;;;;5109490;28;20077;-67
2021/07/25 05:07:15;;;;;;;2.40;2.20;;;12.60;48.00;;;;;;5104840;28;20039;-70
2021/07/25 05:09:42;;;;;;;2.03;1.83;;;12.60;47.80;;;;;;5107598;28;20024;-67
2021/07/25 05:12:27;;;;;;;42.33;32.85;;;12.60;47.90;;;;;;5098420;28;20023;-69
2021/07/25 05:15:20;;;;;;;33.03;21.88;;;12.70;48.30;;;;;;5108871;28;20054;-71
2021/07/25 05:18:01;;;;;;;3.30;3.00;;;12.70;48.00;;;;;;5108344;28;20040;-68
2021/07/25 05:20:42;;;;;;;4.13;2.58;;;12.70;47.40;;;;;;5104891;28;20063;-69
2021/07/25 05:23:21;;;;;;;2.35;1.67;;;12.70;47.40;;;;;;5102165;28;20051;-67
2021/07/25 05:25:53;;;;;;;1.98;1.75;;;12.70;47.20;;;;;;5104928;28;20535;-68
2021/07/25 05:28:21;;;;;;;4.30;1.70;;;12.70;47.30;;;;;;5095907;28;20036;-70
2021/07/25 05:30:55;;;;;;;2.45;1.20;;;12.70;47.50;;;;;;5101538;28;20019;-70
2021/07/25 05:33:23;;;;;;;4.78;1.70;;;12.70;47.30;;;;;;5100031;28;20059;-69
2021/07/25 05:35:50;;;;;;;2.72;1.80;;;12.70;47.40;;;;;;5101154;28;20478;-69
2021/07/25 05:38:18;;;;;;;1.83;1.45;;;12.70;46.80;;;;;;5103776;28;20114;-67
2021/07/25 05:40:45;;;;;;;3.42;1.40;;;12.70;46.70;;;;;;5103887;28;20032;-68
2021/07/25 05:43:12;;;;;;;4.05;1.40;;;12.70;46.40;;;;;;5104874;28;20092;-68
2021/07/25 05:45:38;;;;;;;2.67;1.40;;;12.70;46.20;;;;;;5101783;28;20051;-69
2021/07/25 05:48:05;;;;;;;2.05;1.20;;;12.80;46.10;;;;;;5101943;28;20074;-68
2021/07/25 05:50:32;;;;;;;7.50;5.80;;;12.70;46.20;;;;;;5100434;28;20063;-70
2021/07/25 05:53:00;;;;;;;19.45;14.77;;;12.80;46.50;;;;;;5099101;28;20118;-69
2021/07/25 05:55:31;;;;;;;19.38;11.10;;;12.80;47.10;;;;;;5100171;28;20028;-67
2021/07/25 05:57:59;;;;;;;5.50;2.40;;;12.80;46.10;;;;;;5100424;28;20471;-69
2021/07/25 06:00:26;;;;;;;3.95;2.05;;;12.80;45.90;;;;;;5104056;28;20422;-66
2021/07/25 06:02:57;;;;;;;4.88;1.70;;;12.80;46.00;;;;;;5102725;28;20046;-69
2021/07/25 06:05:29;;;;;;;2.38;1.55;;;12.80;46.00;;;;;;5104352;28;20107;-66
2021/07/25 06:07:56;;;;;;;3.50;1.50;;;12.80;46.10;;;;;;5101478;28;20065;-67
2021/07/25 06:10:27;;;;;;;4.20;2.72;;;12.80;46.40;;;;;;5105075;28;20417;-65
2021/07/25 06:12:56;;;;;;;10.38;7.20;;;12.80;46.60;;;;;;5099201;28;20493;-68
2021/07/25 06:15:23;;;;;;;3.28;2.55;;;12.80;47.20;;;;;;5101596;28;20056;-67
2021/07/25 06:17:51;;;;;;;3.90;1.70;;;12.90;47.00;;;;;;5097765;28;20024;-68
2021/07/25 06:20:18;;;;;;;3.35;1.83;;;12.90;47.80;;;;;;5101049;28;20012;-66
2021/07/25 06:22:47;;;;;;;4.15;1.77;;;12.90;47.30;;;;;;5107134;28;20063;-70
2021/07/25 06:25:20;;;;;;;6.65;1.98;;;12.90;47.40;;;;;;5106373;28;20095;-69
2021/07/25 06:27:47;;;;;;;2.13;1.80;;;12.90;47.10;;;;;;5099580;28;20114;-67
2021/07/25 06:30:14;;;;;;;2.95;1.38;;;13.00;47.20;;;;;;5099663;28;20016;-67
2021/07/25 06:33:00;;;;;;;2.42;2.00;;;12.90;47.30;;;;;;5104487;28;20020;-68
2021/07/25 06:35:35;;;;;;;2.13;1.60;;;13.00;47.30;;;;;;5106037;28;20099;-71
2021/07/25 06:38:04;;;;;;;3.60;1.73;;;13.00;47.50;;;;;;5102547;28;20379;-69
2021/07/25 06:40:32;;;;;;;6.25;2.35;;;13.00;47.60;;;;;;5108202;28;20015;-66
2021/07/25 06:43:00;;;;;;;3.35;1.65;;;13.00;47.70;;;;;;5096810;28;20032;-66
2021/07/25 06:45:27;;;;;;;3.70;1.90;;;13.00;47.70;;;;;;5107117;28;20020;-68
2021/07/25 06:47:54;;;;;;;2.85;1.77;;;13.10;47.90;;;;;;5100704;28;20058;-66
2021/07/25 06:50:26;;;;;;;3.17;1.80;;;13.10;48.00;;;;;;5104776;28;20023;-66
2021/07/25 06:52:54;;;;;;;4.28;1.92;;;13.10;48.00;;;;;;5099251;28;20505;-70
2021/07/25 06:55:23;;;;;;;5.25;2.35;;;13.10;47.90;;;;;;5101006;28;20016;-66
2021/07/25 06:57:50;;;;;;;3.03;1.65;;;13.10;48.10;;;;;;5106787;28;20023;-68
2021/07/25 07:00:17;;;;;;;2.80;1.63;;;13.10;48.50;;;;;;5103781;28;20085;-67
2021/07/25 07:02:48;;;;;;;1.95;1.85;;;13.10;48.00;;;;;;5105226;28;20031;-69
2021/07/25 07:05:20;;;;;;;3.13;1.60;;;13.10;47.80;;;;;;5101241;28;20072;-69
2021/07/25 07:07:48;;;;;;;2.42;1.63;;;13.20;47.90;;;;;;5112528;27;20049;-67
2021/07/25 07:10:16;;;;;;;3.53;1.88;;;13.20;48.70;;;;;;5102175;27;20019;-68
2021/07/25 07:12:44;;;;;;;4.70;1.83;;;13.30;47.80;;;;;;5109271;28;20076;-66
2021/07/25 07:15:11;;;;;;;2.10;1.70;;;13.30;48.80;;;;;;5111705;28;20028;-70
2021/07/25 07:17:39;;;;;;;2.60;1.35;;;13.30;47.40;;;;;;5107669;28;20019;-65
2021/07/25 07:20:07;;;;;;;7.10;2.60;;;13.40;47.70;;;;;;5101722;28;20130;-68
2021/07/25 07:22:35;;;;;;;5.22;2.63;;;13.50;46.80;;;;;;5108764;28;20036;-66
2021/07/25 07:25:03;;;;;;;2.85;2.15;;;13.50;46.50;;;;;;5101101;28;20020;-69
2021/07/25 07:28:09;;;;;;;3.75;2.00;;;13.50;46.80;;;;;;5108037;28;20485;-69
2021/07/25 07:31:15;;;;;;;3.08;1.55;;;13.60;47.50;;;;;;5106596;28;20046;-73
2021/07/25 07:34:21;;;;;;;8.80;2.58;;;13.70;48.50;;;;;;5104277;28;20028;-74
2021/07/25 07:37:27;;;;;;;4.32;3.55;;;13.80;47.70;;;;;;5107347;28;20449;-74
2021/07/25 07:40:34;;;;;;;3.63;1.83;;;13.90;48.30;;;;;;5105378;28;20032;-68
2021/07/25 07:43:40;;;;;;;2.45;1.30;;;14.00;46.60;;;;;;5103584;28;20063;-71
2021/07/25 07:46:46;;;;;;;4.35;1.35;;;14.10;48.20;;;;;;5104913;28;20095;-67
2021/07/25 07:49:52;;;;;;;4.30;1.70;;;14.20;48.10;;;;;;5104839;28;20078;-70
2021/07/25 07:52:58;;;;;;;1.58;1.30;;;14.30;48.40;;;;;;5099832;28;20032;-71
2021/07/25 07:56:04;;;;;;;15.48;3.72;;;14.40;47.00;;;;;;5097397;28;20051;-69
2021/07/25 07:59:10;;;;;;;11.68;2.45;;;14.40;47.50;;;;;;5108685;28;20020;-64
2021/07/25 08:04:51;;;;;;;4.47;1.60;;;14.60;49.70;;;;;;5222483;22;20938;-64
2021/07/25 08:07:57;;;;;;;3.25;1.20;;;14.60;48.90;;;;;;5087429;28;20036;-66
2021/07/25 08:11:03;;;;;;;4.88;1.20;;;14.70;45.70;;;;;;5079471;28;20434;-63
2021/07/25 08:14:10;;;;;;;2.13;0.88;;;14.80;44.50;;;;;;5085470;28;20028;-65
2021/07/25 08:17:16;;;;;;;3.55;1.00;;;14.80;44.60;;;;;;5079166;28;20175;-64
2021/07/25 08:20:22;;;;;;;4.13;1.38;;;14.90;44.40;;;;;;5079809;28;20020;-65
2021/07/25 08:23:28;;;;;;;17.58;12.63;;;15.00;43.50;;;;;;5078467;28;20036;-65
2021/07/25 08:26:34;;;;;;;57.40;39.63;;;15.00;44.00;;;;;;5081348;28;20093;-66
2021/07/25 08:29:41;;;;;;;6.43;5.13;;;15.10;44.00;;;;;;5092398;28;20084;-64
2021/07/25 08:32:47;;;;;;;7.03;2.65;;;15.10;43.80;;;;;;5077899;28;20021;-65
2021/07/25 08:35:53;;;;;;;2.15;1.55;;;15.20;43.90;;;;;;5082580;28;20024;-66
2021/07/25 08:39:00;;;;;;;4.07;2.05;;;15.20;44.70;;;;;;5084661;28;20500;-64
2021/07/25 08:41:56;;;;;;;3.13;2.08;;;15.30;44.60;;;;;;5086062;28;20089;-64
2021/07/25 08:44:39;;;;;;;4.30;1.80;;;15.40;45.00;;;;;;5082355;28;20108;-66
2021/07/25 08:47:19;;;;;;;6.65;2.08;;;15.40;45.30;;;;;;5083156;28;20520;-65
2021/07/25 08:50:00;;;;;;;4.85;2.58;;;15.50;45.50;;;;;;5078290;28;20092;-64
2021/07/25 08:52:27;;;;;;;5.68;2.65;;;15.60;45.30;;;;;;5084348;28;20028;-64
2021/07/25 08:54:56;;;;;;;7.40;2.22;;;15.60;44.60;;;;;;5088419;28;20032;-67
2021/07/25 08:58:07;;;;;;;6.57;1.98;;;15.70;44.90;;;;;;5084315;28;20402;-67
2021/07/25 09:01:13;;;;;;;6.13;2.50;;;15.70;44.80;;;;;;5072940;28;20032;-66
2021/07/25 09:04:19;;;;;;;11.50;5.50;;;15.80;44.60;;;;;;5078384;28;20143;-66
2021/07/25 09:06:49;;;;;;;6.93;5.07;;;15.90;45.10;;;;;;5079293;28;20017;-67
2021/07/25 09:09:18;;;;;;;6.55;3.88;;;16.00;45.30;;;;;;5085220;28;20056;-66
2021/07/25 09:11:48;;;;;;;5.18;3.83;;;16.10;46.30;;;;;;5082272;28;20107;-66
2021/07/25 09:14:14;;;;;;;7.18;4.85;;;16.20;45.60;;;;;;5082547;28;20012;-65
2021/07/25 09:16:41;;;;;;;222.50;191.30;;;16.30;45.90;;;;;;5091779;28;20478;-68
2021/07/25 09:19:08;;;;;;;61.75;51.33;;;16.40;45.50;;;;;;5084504;28;20024;-67
2021/07/25 09:21:41;;;;;;;86.40;71.15;;;16.50;45.50;;;;;;5084997;28;20027;-67
2021/07/25 09:24:59;;;;;;;25.67;18.08;;;16.70;44.90;;;;;;5073837;28;20162;-69
2021/07/25 09:28:05;;;;;;;12.00;6.43;;;16.80;44.10;;;;;;5080948;28;20020;-67
2021/07/25 09:30:52;;;;;;;6.65;5.15;;;17.00;44.00;;;;;;5085657;28;20036;-69
2021/07/25 09:33:44;;;;;;;8.88;5.78;;;17.10;42.80;;;;;;5080710;28;20016;-68
2021/07/25 09:36:50;;;;;;;11.10;7.70;;;17.20;41.70;;;;;;5078336;28;20056;-67
2021/07/25 09:39:56;;;;;;;9.15;6.80;;;17.30;41.40;;;;;;5084153;28;20059;-67
2021/07/25 09:43:10;;;;;;;10.07;6.70;;;17.50;41.70;;;;;;5084892;28;20114;-67
2021/07/25 09:45:54;;;;;;;8.82;6.47;;;17.70;42.20;;;;;;5080673;28;20024;-68
2021/07/25 09:49:01;;;;;;;8.98;5.63;;;17.80;42.20;;;;;;5084399;28;20032;-67
2021/07/25 09:52:07;;;;;;;7.25;4.53;;;18.00;41.50;;;;;;5081182;28;20504;-67
2021/07/25 09:55:13;;;;;;;9.70;6.75;;;18.20;41.40;;;;;;5081714;28;20142;-67
2021/07/25 09:58:19;;;;;;;7.85;6.00;;;18.40;40.80;;;;;;5080858;28;20016;-68
2021/07/25 10:01:25;;;;;;;15.73;6.25;;;18.50;40.00;;;;;;5083259;28;20154;-67
2021/07/25 10:04:31;;;;;;;9.50;6.57;;;18.60;40.20;;;;;;5077352;28;20060;-67
2021/07/25 10:07:37;;;;;;;9.15;6.57;;;18.80;40.80;;;;;;5080042;28;20024;-67
2021/07/25 10:10:43;;;;;;;11.90;7.32;;;18.90;40.20;;;;;;5087525;28;20024;-66
2021/07/25 10:13:49;;;;;;;12.57;9.88;;;19.10;39.60;;;;;;5082612;28;20054;-67
2021/07/25 10:16:57;;;;;;;10.90;8.40;;;19.20;39.60;;;;;;5076255;28;20035;-67
2021/07/25 10:20:08;;;;;;;11.30;8.60;;;19.30;39.40;;;;;;5080969;28;20498;-67
2021/07/25 10:23:14;;;;;;;11.07;8.60;;;19.40;40.10;;;;;;5076343;28;20042;-66
2021/07/25 10:26:21;;;;;;;13.63;9.43;;;19.50;39.90;;;;;;5082221;28;20024;-67
2021/07/25 10:29:27;;;;;;;12.05;8.65;;;19.70;39.80;;;;;;5077461;28;20403;-67
2021/07/25 10:32:33;;;;;;;9.68;8.10;;;19.80;39.90;;;;;;5078521;28;20377;-67
2021/07/25 10:35:39;;;;;;;9.45;8.48;;;20.00;40.00;;;;;;5077738;28;20024;-66
2021/07/25 10:38:45;;;;;;;11.82;8.68;;;20.10;38.90;;;;;;5075086;28;20013;-65
2021/07/25 10:41:51;;;;;;;12.75;8.77;;;20.20;38.60;;;;;;5073701;28;20084;-67
2021/07/25 10:44:57;;;;;;;11.45;8.38;;;20.40;39.30;;;;;;5076235;28;20038;-67
2021/07/25 10:48:06;;;;;;;14.82;9.07;;;20.50;38.00;;;;;;5078216;28;20085;-67
2021/07/25 10:51:12;;;;;;;14.45;10.98;;;20.70;37.80;;;;;;5076054;28;20039;-67
2021/07/25 10:54:17;;;;;;;12.15;8.30;;;20.70;38.00;;;;;;5072839;28;20028;-67
2021/07/25 10:57:10;;;;;;;11.35;8.63;;;20.80;37.40;;;;;;5079525;28;20044;-67
2021/07/25 10:59:55;;;;;;;10.88;7.93;;;21.00;37.40;;;;;;5084667;28;20031;-67
2021/07/25 11:02:25;;;;;;;12.50;9.83;;;21.00;37.00;;;;;;5079738;28;20122;-67
2021/07/25 11:04:51;;;;;;;13.95;8.48;;;21.20;37.00;;;;;;5078421;28;20028;-67
2021/07/25 11:07:36;;;;;;;13.48;9.13;;;21.20;35.80;;;;;;5079451;28;20390;-67
2021/07/25 11:10:09;;;;;;;10.57;7.38;;;21.40;35.70;;;;;;5074867;28;20040;-67
2021/07/25 11:13:05;;;;;;;13.32;8.15;;;21.40;35.20;;;;;;5084084;28;20494;-67
2021/07/25 11:15:32;;;;;;;11.85;5.63;;;21.50;35.30;;;;;;5053144;28;20040;-67
2021/07/25 11:18:03;;;;;;;7.50;4.63;;;21.60;34.50;;;;;;5080254;28;20025;-67
2021/07/25 11:20:50;;;;;;;14.25;5.63;;;21.70;35.10;;;;;;5074317;28;20063;-68
2021/07/25 11:23:19;;;;;;;7.60;3.42;;;22.00;37.30;;;;;;5078775;28;20131;-67
2021/07/25 11:25:47;;;;;;;4.68;3.33;;;22.10;37.80;;;;;;5076101;28;20051;-67
2021/07/25 11:28:38;;;;;;;6.45;3.75;;;22.20;38.20;;;;;;5074737;28;20039;-67
2021/07/25 11:31:12;;;;;;;7.18;3.63;;;22.20;39.90;;;;;;5069324;28;20111;-67
2021/07/25 11:33:38;;;;;;;5.43;3.53;;;22.40;40.60;;;;;;5073989;28;20025;-67
2021/07/25 11:36:10;;;;;;;9.52;4.53;;;22.40;39.60;;;;;;5078639;28;20052;-67
2021/07/25 11:38:38;;;;;;;7.65;3.92;;;22.60;40.20;;;;;;5073463;28;20108;-67
2021/07/25 11:41:05;;;;;;;6.35;3.33;;;22.60;41.60;;;;;;5076937;28;20016;-67
2021/07/25 11:43:54;;;;;;;4.22;3.38;;;22.80;43.10;;;;;;5081747;28;20032;-67
2021/07/25 11:46:36;;;;;;;4.50;2.45;;;22.90;42.50;;;;;;5077643;28;20442;-67
2021/07/25 11:49:05;;;;;;;8.23;3.25;;;22.90;42.20;;;;;;5080776;28;20059;-67
2021/07/25 11:51:37;;;;;;;14.63;4.25;;;23.00;42.70;;;;;;5080262;28;20080;-68
2021/07/25 11:54:04;;;;;;;3.45;1.77;;;23.10;42.60;;;;;;5082407;28;20004;-68
2021/07/25 11:56:31;;;;;;;4.88;0.90;;;23.20;40.30;;;;;;5085936;28;20028;-68
2021/07/25 11:59:02;;;;;;;1.33;1.15;;;23.30;35.00;;;;;;5081833;28;20024;-67
2021/07/25 12:01:30;;;;;;;0.70;0.70;;;23.50;35.50;;;;;;5078373;28;20021;-67
2021/07/25 12:03:56;;;;;;;2.10;0.80;;;23.70;34.10;;;;;;5082301;28;20036;-67
2021/07/25 12:06:23;;;;;;;0.57;0.52;;;23.80;33.20;;;;;;5064223;28;20387;-68
2021/07/25 12:09:07;;;;;;;252.35;226.05;;;23.80;33.40;;;;;;5087653;28;20089;-67
2021/07/25 12:11:35;;;;;;;25.17;22.77;;;23.90;35.50;;;;;;5078049;28;20028;-67
2021/07/25 12:14:02;;;;;;;4.30;1.02;;;23.90;36.60;;;;;;5084525;28;20048;-68
2021/07/25 12:16:45;;;;;;;1.58;0.88;;;24.00;36.30;;;;;;5077638;28;20024;-68
2021/07/25 12:19:14;;;;;;;2.22;1.40;;;24.10;35.00;;;;;;5079257;28;20027;-68
2021/07/25 12:21:40;;;;;;;5.85;2.08;;;24.10;33.60;;;;;;5073871;28;20502;-68
2021/07/25 12:24:31;;;;;;;4.30;1.33;;;24.20;34.80;;;;;;5076696;28;20016;-69
2021/07/25 12:26:59;;;;;;;5.25;2.42;;;24.20;32.80;;;;;;5077346;28;20474;-68
2021/07/25 12:29:40;;;;;;;3.50;0.85;;;24.10;32.70;;;;;;5075367;28;20024;-69
2021/07/25 12:32:30;;;;;;;1.35;0.93;;;24.10;33.90;;;;;;5077262;28;20055;-69
2021/07/25 12:35:13;;;;;;;15.60;8.65;;;24.10;35.60;;;;;;5079747;28;21652;-67
2021/07/25 12:37:48;;;;;;;1.90;1.40;;;24.00;35.30;;;;;;5077936;28;20020;-72
2021/07/25 12:40:22;;;;;;;1.13;1.00;;;23.90;37.20;;;;;;5076720;28;20054;-72
2021/07/25 12:42:51;;;;;;;2.08;1.17;;;23.90;38.10;;;;;;5076567;28;20060;-71
2021/07/25 12:45:33;;;;;;;1.10;1.00;;;24.00;37.90;;;;;;5078577;28;20073;-69
2021/07/25 12:48:25;;;;;;;2.35;1.00;;;24.00;34.90;;;;;;5084702;28;20024;-69
2021/07/25 12:53:46;;;;;;;3.08;0.90;;;24.10;33.50;;;;;;5086445;28;20553;-69
2021/07/25 12:56:16;;;;;;;3.30;1.30;;;24.00;31.70;;;;;;5084471;28;20036;-68
2021/07/25 12:58:48;;;;;;;1.27;1.13;;;24.10;31.20;;;;;;5082952;28;20513;-66
2021/07/25 13:04:09;;;;;;;1.40;0.70;;;24.10;30.90;;;;;;5078228;28;20101;-67
2021/07/25 13:06:39;;;;;;;2.03;0.85;;;24.10;30.00;;;;;;5074947;28;20024;-69
2021/07/25 13:09:11;;;;;;;3.47;0.98;;;24.10;30.70;;;;;;5076237;28;20073;-69
2021/07/25 13:11:42;;;;;;;2.38;0.98;;;24.10;31.90;;;;;;5072086;28;20011;-68
2021/07/25 13:14:11;;;;;;;3.60;1.52;;;24.00;30.80;;;;;;5074602;28;20024;-68
2021/07/25 13:16:41;;;;;;;3.33;1.55;;;24.00;30.20;;;;;;5056455;28;20089;-68
2021/07/25 13:19:08;;;;;;;4.65;0.90;;;24.00;30.50;;;;;;5074448;28;20059;-69
2021/07/25 13:21:34;;;;;;;1.08;0.85;;;23.90;30.10;;;;;;5071969;28;20053;-69
2021/07/25 13:24:01;;;;;;;1.67;1.45;;;23.90;31.00;;;;;;5076070;28;20496;-68
2021/07/25 13:26:28;;;;;;;1.35;1.15;;;23.90;31.10;;;;;;5072964;28;20016;-67
2021/07/25 13:28:55;;;;;;;1.08;0.80;;;23.80;31.40;;;;;;5074666;28;20009;-69
2021/07/25 13:32:01;;;;;;;2.33;1.02;;;23.80;31.50;;;;;;5067330;28;20495;-68
2021/07/25 13:34:27;;;;;;;;;;;23.80;32.80;;;;;;5069326;28;20033;-70
2021/07/25 13:36:53;;;;;;;4.43;2.10;;;23.70;33.30;;;;;;5076707;28;19919;-68
2021/07/25 13:39:20;;;;;;;1.30;1.20;;;23.70;33.30;;;;;;5073409;28;20013;-68
2021/07/25 13:41:46;;;;;;;5.72;1.60;;;23.60;34.30;;;;;;5077920;28;20019;-69
2021/07/25 13:44:13;;;;;;;1.33;1.13;;;23.60;34.30;;;;;;5073905;28;20028;-69